createdAt,value
2019-05-25T00:02:13.934Z,18.13
2019-05-25T00:04:43.481Z,18.13
2019-05-25T00:07:10.237Z,18.14
2019-05-25T00:09:36.939Z,17.97
2019-05-25T00:12:04.077Z,17.88
2019-05-25T00:14:31.144Z,17.93
2019-05-25T00:16:57.886Z,17.85
2019-05-25T00:19:27.429Z,17.85
2019-05-25T00:21:54.161Z,17.79
2019-05-25T00:24:20.909Z,17.70
2019-05-25T00:26:47.642Z,17.61
2019-05-25T00:29:14.756Z,17.57
2019-05-25T00:31:41.470Z,17.47
2019-05-25T00:34:08.208Z,17.33
2019-05-25T00:36:35.055Z,17.33
2019-05-25T00:39:01.935Z,17.39
2019-05-25T00:41:28.718Z,17.41
2019-05-25T00:43:55.790Z,17.44
2019-05-25T00:46:22.520Z,17.39
2019-05-25T00:48:49.242Z,17.30
2019-05-25T00:51:15.970Z,17.30
2019-05-25T00:53:43.056Z,17.24
2019-05-25T00:56:09.967Z,17.23
2019-05-25T00:58:36.799Z,17.15
2019-05-25T01:01:03.540Z,17.10
2019-05-25T01:03:30.252Z,17.14
2019-05-25T01:05:57.070Z,17.24
2019-05-25T01:08:23.772Z,17.27
2019-05-25T01:10:50.499Z,17.24
2019-05-25T01:13:17.206Z,17.22
2019-05-25T01:15:43.937Z,17.14
2019-05-25T01:18:12.575Z,17.14
2019-05-25T01:20:39.296Z,16.98
2019-05-25T01:23:06.066Z,16.90
2019-05-25T01:25:33.106Z,16.83
2019-05-25T01:27:59.988Z,16.81
2019-05-25T01:30:26.720Z,16.91
2019-05-25T01:32:53.438Z,16.92
2019-05-25T01:35:20.150Z,16.73
2019-05-25T01:37:48.616Z,16.76
2019-05-25T01:40:17.790Z,16.74
2019-05-25T01:42:44.828Z,16.67
2019-05-25T01:45:11.565Z,16.51
2019-05-25T01:47:38.306Z,16.50
2019-05-25T01:50:05.450Z,16.58
2019-05-25T01:52:32.194Z,16.55
2019-05-25T01:55:00.512Z,16.51
2019-05-25T01:57:27.631Z,16.55
2019-05-25T01:59:54.615Z,16.53
2019-05-25T02:02:23.304Z,16.52
2019-05-25T02:04:50.042Z,16.49
2019-05-25T02:07:16.781Z,16.47
2019-05-25T02:09:43.500Z,16.47
2019-05-25T02:12:10.231Z,16.40
2019-05-25T02:14:36.934Z,16.43
2019-05-25T02:17:05.188Z,16.45
2019-05-25T02:19:31.991Z,16.43
2019-05-25T02:21:58.760Z,16.41
2019-05-25T02:24:25.485Z,16.40
2019-05-25T02:26:52.231Z,16.43
2019-05-25T02:29:18.984Z,16.33
2019-05-25T02:31:45.984Z,16.33
2019-05-25T02:34:13.458Z,16.26
2019-05-25T02:36:40.169Z,16.28
2019-05-25T02:39:07.016Z,16.29
2019-05-25T02:41:34.385Z,16.28
2019-05-25T02:44:01.149Z,16.37
2019-05-25T02:46:27.852Z,16.38
2019-05-25T02:48:55.216Z,16.32
2019-05-25T02:51:21.914Z,16.36
2019-05-25T02:53:49.305Z,16.36
2019-05-25T02:56:16.044Z,16.29
2019-05-25T02:58:42.759Z,16.25
2019-05-25T03:01:09.463Z,16.21
2019-05-25T03:03:36.163Z,16.24
2019-05-25T03:06:04.247Z,16.29
2019-05-25T03:08:30.995Z,16.40
2019-05-25T03:10:59.645Z,16.24
2019-05-25T03:13:27.020Z,16.23
2019-05-25T03:15:53.850Z,16.17
2019-05-25T03:18:20.562Z,16.12
2019-05-25T03:20:47.276Z,16.03
2019-05-25T03:23:14.124Z,16.07
2019-05-25T03:25:49.274Z,16.07
2019-05-25T03:28:09.437Z,16.16
2019-05-25T03:30:36.537Z,16.27
2019-05-25T03:33:03.327Z,16.11
2019-05-25T03:35:30.418Z,16.11
2019-05-25T03:37:57.327Z,16.07
2019-05-25T03:40:24.040Z,15.97
2019-05-25T03:42:50.778Z,15.97
2019-05-25T03:45:17.527Z,15.90
2019-05-25T03:47:44.250Z,15.93
2019-05-25T03:50:11.032Z,15.92
2019-05-25T03:52:37.760Z,15.91
2019-05-25T03:55:04.573Z,15.84
2019-05-25T03:57:31.251Z,15.84
2019-05-25T03:59:57.969Z,15.88
2019-05-25T04:02:25.864Z,15.83
2019-05-25T04:04:52.592Z,15.83
2019-05-25T04:07:19.277Z,15.89
2019-05-25T04:09:47.416Z,15.87
2019-05-25T04:12:14.127Z,15.90
2019-05-25T04:14:41.268Z,15.89
2019-05-25T04:17:07.997Z,15.90
2019-05-25T04:19:35.420Z,15.88
2019-05-25T04:22:02.180Z,15.80
2019-05-25T04:24:28.914Z,15.81
2019-05-25T04:26:55.706Z,15.62
2019-05-25T04:29:22.459Z,15.63
2019-05-25T04:31:49.158Z,15.64
2019-05-25T04:34:15.872Z,15.63
2019-05-25T04:36:42.859Z,15.63
2019-05-25T04:39:09.598Z,15.68
2019-05-25T04:41:36.299Z,15.63
2019-05-25T04:44:05.560Z,15.50
2019-05-25T04:46:33.883Z,15.59
2019-05-25T04:49:00.625Z,15.56
2019-05-25T04:51:27.432Z,15.60
2019-05-25T04:53:54.146Z,15.68
2019-05-25T04:56:20.889Z,15.73
2019-05-25T04:58:47.600Z,15.73
2019-05-25T05:01:14.336Z,15.71
2019-05-25T05:03:41.031Z,15.83
2019-05-25T05:06:07.843Z,15.82
2019-05-25T05:08:35.693Z,15.88
2019-05-25T05:11:02.759Z,15.99
2019-05-25T05:13:29.535Z,16.24
2019-05-25T05:15:56.645Z,16.47
2019-05-25T05:18:23.377Z,16.61
2019-05-25T05:20:50.405Z,16.77
2019-05-25T05:23:17.178Z,16.55
2019-05-25T05:25:43.862Z,16.66
2019-05-25T05:28:10.949Z,16.72
2019-05-25T05:30:37.867Z,16.90
2019-05-25T05:33:04.918Z,17.00
2019-05-25T05:35:31.762Z,17.14
2019-05-25T05:37:58.651Z,17.17
2019-05-25T05:40:25.352Z,17.15
2019-05-25T05:42:52.069Z,17.06
2019-05-25T05:45:18.780Z,16.92
2019-05-25T05:47:45.644Z,16.96
2019-05-25T05:50:12.377Z,17.16
2019-05-25T05:52:39.141Z,17.29
2019-05-25T05:55:07.894Z,17.26
2019-05-25T05:57:34.717Z,17.14
2019-05-25T06:00:01.550Z,17.15
2019-05-25T06:02:28.277Z,17.19
2019-05-25T06:04:55.333Z,17.17
2019-05-25T06:07:27.449Z,17.17
2019-05-25T06:09:55.245Z,17.34
2019-05-25T06:12:27.856Z,17.52
2019-05-25T06:14:54.573Z,17.27
2019-05-25T06:17:21.433Z,17.00
2019-05-25T06:19:48.167Z,16.95
2019-05-25T06:22:14.912Z,16.79
2019-05-25T06:24:41.661Z,16.74
2019-05-25T06:27:26.478Z,16.73
2019-05-25T06:29:43.622Z,16.80
2019-05-25T06:32:12.627Z,16.97
2019-05-25T06:34:40.580Z,17.20
2019-05-25T06:37:08.089Z,17.23
2019-05-25T06:39:35.211Z,17.25
2019-05-25T06:42:02.315Z,17.23
2019-05-25T06:44:31.121Z,17.39
2019-05-25T06:46:57.847Z,17.43
2019-05-25T06:49:24.622Z,17.54
2019-05-25T06:51:51.324Z,17.55
2019-05-25T06:54:18.511Z,17.62
2019-05-25T06:56:45.231Z,17.35
2019-05-25T06:59:13.287Z,17.30
2019-05-25T07:01:41.487Z,17.26
2019-05-25T07:04:08.187Z,17.33
2019-05-25T07:06:34.929Z,17.55
2019-05-25T07:09:01.659Z,17.53
2019-05-25T07:11:28.479Z,17.72
2019-05-25T07:14:01.126Z,17.97
2019-05-25T07:16:32.821Z,18.25
2019-05-25T07:18:59.687Z,18.45
2019-05-25T07:21:26.589Z,18.57
2019-05-25T07:23:53.447Z,18.59
2019-05-25T07:26:20.255Z,18.49
2019-05-25T07:28:47.013Z,18.64
2019-05-25T07:31:13.845Z,18.65
2019-05-25T07:33:40.634Z,18.64
2019-05-25T07:36:08.019Z,18.74
2019-05-25T07:38:35.282Z,18.75
2019-05-25T07:41:02.016Z,18.65
2019-05-25T07:43:28.763Z,18.61
2019-05-25T07:45:55.530Z,18.80
2019-05-25T07:48:22.280Z,18.93
2019-05-25T07:50:49.027Z,19.03
2019-05-25T07:53:16.973Z,19.27
2019-05-25T07:55:43.820Z,19.40
2019-05-25T07:58:17.598Z,19.54
2019-05-25T08:00:39.354Z,19.15
2019-05-25T08:03:06.416Z,19.30
2019-05-25T08:05:33.478Z,19.30
2019-05-25T08:08:00.293Z,19.40
2019-05-25T08:10:27.525Z,19.61
2019-05-25T08:12:55.639Z,19.70
2019-05-25T08:15:22.493Z,19.51
2019-05-25T08:17:49.562Z,19.54
2019-05-25T08:20:16.264Z,19.54
2019-05-25T08:22:43.001Z,19.36
2019-05-25T08:25:09.739Z,19.24
2019-05-25T08:27:36.559Z,19.15
2019-05-25T08:30:04.543Z,19.16
2019-05-25T08:32:31.652Z,19.26
2019-05-25T08:35:01.197Z,19.56
2019-05-25T08:37:27.914Z,19.62
2019-05-25T08:39:54.741Z,19.73
2019-05-25T08:42:21.552Z,19.75
2019-05-25T08:44:48.343Z,19.88
2019-05-25T08:47:15.037Z,19.81
2019-05-25T08:49:41.952Z,19.70
2019-05-25T08:52:08.690Z,19.91
2019-05-25T08:54:35.389Z,20.19
2019-05-25T08:57:02.292Z,20.27
2019-05-25T08:59:29.074Z,20.32
2019-05-25T09:01:55.770Z,20.37
2019-05-25T09:04:25.549Z,20.26
2019-05-25T09:06:52.496Z,20.25
2019-05-25T09:09:19.334Z,20.53
2019-05-25T09:11:46.081Z,20.82
2019-05-25T09:14:12.830Z,20.80
2019-05-25T09:16:39.597Z,20.85
2019-05-25T09:19:06.303Z,20.82
2019-05-25T09:21:33.095Z,20.70
2019-05-25T09:23:59.833Z,20.83
2019-05-25T09:26:26.924Z,20.87
2019-05-25T09:29:03.942Z,20.86
2019-05-25T09:31:22.597Z,20.81
2019-05-25T09:33:49.742Z,21.17
2019-05-25T09:36:16.956Z,21.44
2019-05-25T09:38:43.715Z,21.64
2019-05-25T09:41:11.560Z,21.81
2019-05-25T09:43:38.670Z,21.56
2019-05-25T09:46:05.438Z,21.58
2019-05-25T09:48:32.202Z,21.22
2019-05-25T09:50:58.949Z,21.20
2019-05-25T09:53:25.694Z,21.39
2019-05-25T09:55:52.436Z,21.52
2019-05-25T09:58:21.329Z,22.00
2019-05-25T10:00:53.027Z,21.66
2019-05-25T10:03:19.768Z,21.33
2019-05-25T10:05:46.525Z,21.18
2019-05-25T10:08:15.795Z,21.43
2019-05-25T10:10:42.613Z,21.67
2019-05-25T10:13:09.475Z,21.44
2019-05-25T10:15:36.336Z,21.34
2019-05-25T10:18:03.065Z,21.39
2019-05-25T10:20:29.959Z,21.49
2019-05-25T10:22:56.721Z,21.59
2019-05-25T10:25:23.945Z,21.66
2019-05-25T10:27:50.726Z,21.98
2019-05-25T10:30:20.450Z,21.96
2019-05-25T10:32:47.200Z,22.13
2019-05-25T10:35:14.898Z,22.36
2019-05-25T10:37:41.683Z,22.42
2019-05-25T10:40:08.494Z,22.43
2019-05-25T10:42:38.114Z,22.53
2019-05-25T10:45:05.046Z,22.69
2019-05-25T10:47:32.207Z,22.33
2019-05-25T10:49:59.330Z,22.55
2019-05-25T10:52:26.096Z,23.04
2019-05-25T10:54:52.805Z,22.89
2019-05-25T10:57:19.584Z,23.08
2019-05-25T10:59:53.125Z,23.50
2019-05-25T11:02:15.015Z,23.02
2019-05-25T11:04:41.767Z,22.84
2019-05-25T11:07:08.522Z,22.63
2019-05-25T11:09:37.454Z,22.63
2019-05-25T11:12:05.639Z,22.89
2019-05-25T11:14:32.368Z,22.71
2019-05-25T11:16:59.234Z,22.67
2019-05-25T11:19:29.065Z,22.67
2019-05-25T11:21:55.930Z,22.60
2019-05-25T11:24:22.660Z,22.80
2019-05-25T11:26:49.528Z,22.90
2019-05-25T11:29:16.257Z,23.11
2019-05-25T11:31:43.472Z,23.64
2019-05-25T11:34:10.207Z,23.25
2019-05-25T11:36:36.958Z,23.32
2019-05-25T11:39:05.326Z,23.69
2019-05-25T11:41:32.476Z,23.33
2019-05-25T11:43:59.244Z,23.12
2019-05-25T11:46:26.104Z,23.49
2019-05-25T11:48:52.922Z,23.24
2019-05-25T11:51:19.635Z,23.15
2019-05-25T11:53:46.379Z,22.89
2019-05-25T11:56:13.412Z,22.93
2019-05-25T11:58:47.569Z,23.42
2019-05-25T12:01:10.886Z,23.47
2019-05-25T12:03:37.700Z,23.93
2019-05-25T12:06:04.425Z,24.08
2019-05-25T12:08:31.479Z,24.13
2019-05-25T12:10:58.234Z,24.15
2019-05-25T12:13:25.005Z,24.42
2019-05-25T12:15:51.738Z,24.16
2019-05-25T12:18:18.477Z,24.21
2019-05-25T12:20:45.214Z,23.97
2019-05-25T12:23:12.287Z,23.84
2019-05-25T12:25:39.062Z,23.70
2019-05-25T12:28:05.804Z,23.78
2019-05-25T12:30:40.746Z,24.06
2019-05-25T12:33:01.209Z,24.19
2019-05-25T12:35:28.323Z,24.55
2019-05-25T12:37:55.090Z,24.51
2019-05-25T12:40:24.428Z,24.37
2019-05-25T12:42:51.192Z,24.57
2019-05-25T12:45:18.370Z,24.59
2019-05-25T12:47:45.590Z,24.29
2019-05-25T12:50:16.029Z,24.24
2019-05-25T12:52:42.727Z,24.53
2019-05-25T12:55:09.483Z,24.66
2019-05-25T12:57:36.572Z,24.50
2019-05-25T13:00:14.770Z,24.88
2019-05-25T13:02:32.444Z,25.32
2019-05-25T13:04:59.236Z,25.68
2019-05-25T13:07:26.023Z,25.16
2019-05-25T13:09:52.873Z,25.25
2019-05-25T13:12:19.619Z,25.52
2019-05-25T13:14:46.442Z,25.73
2019-05-25T13:17:13.172Z,26.19
2019-05-25T13:19:40.298Z,26.01
2019-05-25T13:22:08.476Z,25.48
2019-05-25T13:24:35.151Z,25.22
2019-05-25T13:27:01.874Z,25.73
2019-05-25T13:29:28.630Z,26.37
2019-05-25T13:31:55.318Z,26.29
2019-05-25T13:34:22.067Z,26.06
2019-05-25T13:36:48.866Z,26.44
2019-05-25T13:39:15.657Z,26.80
2019-05-25T13:41:42.395Z,27.03
2019-05-25T13:44:09.255Z,27.07
2019-05-25T13:46:36.457Z,27.18
2019-05-25T13:49:03.247Z,27.19
2019-05-25T13:51:29.966Z,26.69
2019-05-25T13:53:56.847Z,26.98
2019-05-25T13:56:23.611Z,26.73
2019-05-25T13:58:50.440Z,26.45
2019-05-25T14:01:28.052Z,26.78
2019-05-25T14:03:47.288Z,26.67
2019-05-25T14:06:14.101Z,26.16
2019-05-25T14:08:41.147Z,26.61
2019-05-25T14:11:07.902Z,27.03
2019-05-25T14:13:34.625Z,27.57
2019-05-25T14:16:07.117Z,26.52
2019-05-25T14:18:30.111Z,25.97
2019-05-25T14:20:57.308Z,25.98
2019-05-25T14:23:24.001Z,26.39
2019-05-25T14:25:50.764Z,26.62
2019-05-25T14:28:17.910Z,27.50
2019-05-25T14:30:45.103Z,27.99
2019-05-25T14:33:12.500Z,27.95
2019-05-25T14:35:39.375Z,27.95
2019-05-25T14:38:06.198Z,27.81
2019-05-25T14:40:32.985Z,28.21
2019-05-25T14:43:02.423Z,27.91
2019-05-25T14:45:29.213Z,27.73
2019-05-25T14:47:58.849Z,28.18
2019-05-25T14:50:25.878Z,27.13
2019-05-25T14:52:52.697Z,25.86
2019-05-25T14:55:19.856Z,26.81
2019-05-25T14:57:46.675Z,27.39
2019-05-25T15:00:14.017Z,27.65
2019-05-25T15:02:41.087Z,27.46
2019-05-25T15:05:08.147Z,27.15
2019-05-25T15:07:34.859Z,26.61
2019-05-25T15:10:01.681Z,26.55
2019-05-25T15:12:28.843Z,26.32
2019-05-25T15:14:57.774Z,25.96
2019-05-25T15:17:27.783Z,25.80
2019-05-25T15:19:54.780Z,25.53
2019-05-25T15:22:21.490Z,25.32
2019-05-25T15:24:48.229Z,25.40
2019-05-25T15:27:14.943Z,25.36
2019-05-25T15:29:41.784Z,25.75
2019-05-25T15:32:19.490Z,26.52
2019-05-25T15:34:37.621Z,26.77
2019-05-25T15:37:04.623Z,26.82
2019-05-25T15:39:31.380Z,26.69
2019-05-25T15:41:58.075Z,26.28
2019-05-25T15:44:24.799Z,26.38
2019-05-25T15:46:51.557Z,26.67
2019-05-25T15:49:18.332Z,27.34
2019-05-25T15:51:45.082Z,27.01
2019-05-25T15:54:11.779Z,26.85
2019-05-25T15:56:38.543Z,26.86
2019-05-25T15:59:05.263Z,26.50
2019-05-25T16:01:31.978Z,25.76
2019-05-25T16:03:58.741Z,25.83
2019-05-25T16:06:25.975Z,25.89
2019-05-25T16:08:52.658Z,26.01
2019-05-25T16:11:19.365Z,25.60
2019-05-25T16:13:46.135Z,25.35
2019-05-25T16:16:12.944Z,25.10
2019-05-25T16:18:40.788Z,24.90
2019-05-25T16:21:11.300Z,24.88
2019-05-25T16:23:38.182Z,24.77
2019-05-25T16:26:04.879Z,24.66
2019-05-25T16:28:31.763Z,24.60
2019-05-25T16:30:59.534Z,25.07
2019-05-25T16:33:26.511Z,25.27
2019-05-25T16:35:57.730Z,25.12
2019-05-25T16:38:22.316Z,25.04
2019-05-25T16:40:50.220Z,24.99
2019-05-25T16:43:17.527Z,25.47
2019-05-25T16:45:44.231Z,25.78
2019-05-25T16:48:10.978Z,25.89
2019-05-25T16:50:37.685Z,25.33
2019-05-25T16:53:04.422Z,25.01
2019-05-25T16:55:31.139Z,24.95
2019-05-25T16:57:57.856Z,24.75
2019-05-25T17:00:27.816Z,24.72
2019-05-25T17:02:58.273Z,24.72
2019-05-25T17:05:26.409Z,24.82
2019-05-25T17:07:54.213Z,24.35
2019-05-25T17:10:20.960Z,24.30
2019-05-25T17:12:47.676Z,24.38
2019-05-25T17:15:14.435Z,24.55
2019-05-25T17:17:41.237Z,24.71
2019-05-25T17:20:08.349Z,24.79
2019-05-25T17:22:35.038Z,24.45
2019-05-25T17:25:02.188Z,24.27
2019-05-25T17:27:31.739Z,24.35
2019-05-25T17:29:58.487Z,24.02
2019-05-25T17:32:25.211Z,23.71
2019-05-25T17:34:51.957Z,23.57
2019-05-25T17:37:18.657Z,23.58
2019-05-25T17:39:45.485Z,23.70
2019-05-25T17:42:12.757Z,23.71
2019-05-25T17:44:39.510Z,23.63
2019-05-25T17:47:06.210Z,23.57
2019-05-25T17:49:32.931Z,23.43
2019-05-25T17:51:59.669Z,23.33
2019-05-25T17:54:26.404Z,23.42
2019-05-25T17:56:53.533Z,23.44
2019-05-25T17:59:20.285Z,23.40
2019-05-25T18:01:46.998Z,23.30
2019-05-25T18:04:13.765Z,23.20
2019-05-25T18:06:40.492Z,23.07
2019-05-25T18:09:07.320Z,22.98
2019-05-25T18:11:34.119Z,22.80
2019-05-25T18:14:00.853Z,22.82
2019-05-25T18:16:27.566Z,22.58
2019-05-25T18:18:54.302Z,22.47
2019-05-25T18:21:21.062Z,22.33
2019-05-25T18:23:47.799Z,22.19
2019-05-25T18:26:14.498Z,22.37
2019-05-25T18:28:41.229Z,22.40
2019-05-25T18:31:08.020Z,22.15
2019-05-25T18:33:35.226Z,21.77
2019-05-25T18:36:01.953Z,21.65
2019-05-25T18:38:29.052Z,21.55
2019-05-25T18:40:56.201Z,21.55
2019-05-25T18:43:23.250Z,21.55
2019-05-25T18:45:50.009Z,21.71
2019-05-25T18:48:16.845Z,21.66
2019-05-25T18:50:43.668Z,21.67
2019-05-25T18:53:10.429Z,21.97
2019-05-25T18:55:37.566Z,21.79
2019-05-25T18:58:04.289Z,21.77
2019-05-25T19:00:31.058Z,21.59
2019-05-25T19:02:58.513Z,21.48
2019-05-25T19:05:25.207Z,21.41
2019-05-25T19:07:51.925Z,21.61
2019-05-25T19:10:20.683Z,21.85
2019-05-25T19:12:47.381Z,21.92
2019-05-25T19:15:15.289Z,21.64
2019-05-25T19:17:44.441Z,21.71
2019-05-25T19:20:12.916Z,21.78
2019-05-25T19:22:39.583Z,21.55
2019-05-25T19:25:06.769Z,21.68
2019-05-25T19:27:34.765Z,21.77
2019-05-25T19:30:01.518Z,21.76
2019-05-25T19:32:32.209Z,21.39
2019-05-25T19:35:00.190Z,21.45
2019-05-25T19:37:27.311Z,21.57
2019-05-25T19:39:54.040Z,21.56
2019-05-25T19:42:20.797Z,21.33
2019-05-25T19:44:47.548Z,21.06
2019-05-25T19:47:17.134Z,21.31
2019-05-25T19:49:44.205Z,21.46
2019-05-25T19:52:11.013Z,21.09
2019-05-25T19:54:37.774Z,21.14
2019-05-25T19:57:04.643Z,21.22
2019-05-25T19:59:31.393Z,21.25
2019-05-25T20:01:58.127Z,21.27
2019-05-25T20:04:24.853Z,21.34
2019-05-25T20:06:51.703Z,21.42
2019-05-25T20:09:18.437Z,21.16
2019-05-25T20:11:45.217Z,21.00
2019-05-25T20:14:11.947Z,21.14
2019-05-25T20:16:38.693Z,21.14
2019-05-25T20:19:05.450Z,21.25
2019-05-25T20:21:32.202Z,21.19
2019-05-25T20:23:58.960Z,21.19
2019-05-25T20:26:26.090Z,20.79
2019-05-25T20:28:52.830Z,20.87
2019-05-25T20:31:19.574Z,20.90
2019-05-25T20:33:46.441Z,20.93
2019-05-25T20:36:13.185Z,20.93
2019-05-25T20:38:40.045Z,21.02
2019-05-25T20:41:06.781Z,20.68
2019-05-25T20:43:34.188Z,20.38
2019-05-25T20:46:00.897Z,20.29
2019-05-25T20:48:27.742Z,20.30
2019-05-25T20:50:54.461Z,20.34
2019-05-25T20:53:21.173Z,20.22
2019-05-25T20:55:47.905Z,20.19
2019-05-25T20:58:17.511Z,20.30
2019-05-25T21:00:44.348Z,20.51
2019-05-25T21:03:13.977Z,20.68
2019-05-25T21:05:50.337Z,20.73
2019-05-25T21:08:11.769Z,20.73
2019-05-25T21:10:38.837Z,20.63
2019-05-25T21:13:05.590Z,20.57
2019-05-25T21:15:32.307Z,20.60
2019-05-25T21:17:59.160Z,20.59
2019-05-25T21:20:25.905Z,20.58
2019-05-25T21:22:52.780Z,20.59
2019-05-25T21:25:19.530Z,20.53
2019-05-25T21:27:46.348Z,20.62
2019-05-25T21:30:13.290Z,20.58
2019-05-25T21:32:40.009Z,20.40
2019-05-25T21:35:06.929Z,20.24
2019-05-25T21:37:33.769Z,20.03
2019-05-25T21:40:00.871Z,20.15
2019-05-25T21:42:27.613Z,20.25
2019-05-25T21:44:54.324Z,20.30
2019-05-25T21:47:21.068Z,20.34
2019-05-25T21:49:47.820Z,20.26
2019-05-25T21:52:15.981Z,20.31
2019-05-25T21:54:45.733Z,20.31
2019-05-25T21:57:12.482Z,20.13
2019-05-25T21:59:42.383Z,20.09
2019-05-25T22:02:10.142Z,20.12
2019-05-25T22:04:36.986Z,20.09
2019-05-25T22:07:03.789Z,20.01
2019-05-25T22:09:30.540Z,19.88
2019-05-25T22:11:57.396Z,19.56
2019-05-25T22:14:24.260Z,19.48
2019-05-25T22:16:51.162Z,19.30
2019-05-25T22:19:18.003Z,19.20
2019-05-25T22:21:46.208Z,19.41
2019-05-25T22:24:13.262Z,19.58
2019-05-25T22:26:39.998Z,19.58
2019-05-25T22:29:06.918Z,19.35
2019-05-25T22:31:34.088Z,19.42
2019-05-25T22:34:00.851Z,19.48
2019-05-25T22:36:39.850Z,19.02
2019-05-25T22:38:56.524Z,18.82
2019-05-25T22:41:25.482Z,18.68
2019-05-25T22:43:52.370Z,18.54
2019-05-25T22:46:19.129Z,18.48
2019-05-25T22:48:46.201Z,18.51
2019-05-25T22:51:13.250Z,18.57
2019-05-25T22:53:40.012Z,18.55
2019-05-25T22:56:06.762Z,18.68
2019-05-25T22:58:33.904Z,18.70
2019-05-25T23:01:00.620Z,18.68
2019-05-25T23:03:27.464Z,18.64
2019-05-25T23:05:54.228Z,18.63
2019-05-25T23:08:20.968Z,18.50
2019-05-25T23:10:47.964Z,18.39
2019-05-25T23:13:17.650Z,18.37
2019-05-25T23:15:44.427Z,18.34
2019-05-25T23:18:11.182Z,18.35
2019-05-25T23:20:38.020Z,18.24
2019-05-25T23:23:04.724Z,18.14
2019-05-25T23:25:31.586Z,18.23
2019-05-25T23:27:59.896Z,18.21
2019-05-25T23:30:28.126Z,18.18
2019-05-25T23:32:54.850Z,18.17
2019-05-25T23:35:21.918Z,18.00
2019-05-25T23:37:48.612Z,17.86
2019-05-25T23:40:15.894Z,17.80
2019-05-25T23:42:42.853Z,17.80
2019-05-25T23:45:09.549Z,17.78
2019-05-25T23:47:36.438Z,17.71
2019-05-25T23:50:04.235Z,17.69
2019-05-25T23:52:31.263Z,17.60
2019-05-25T23:54:57.974Z,17.52
2019-05-25T23:57:24.725Z,17.47
2019-05-25T23:59:52.048Z,17.44
